Time;durP1;ratioP1;P1;durP2;ratioP2;P2;SDS_P1;SDS_P2;PMS_P1;PMS_P2;Temp;Humidity;BMP_temperature;BMP_pressure;BME280_temperature;BME280_humidity;BME280_pressure;Samples;Min_cycle;Max_cycle;Signal;HPM_P1;HPM_P2
2023/07/27 00:00:54;;;;;;;2.75;1.00;;;16.50;99.90;;;;;;4237191;28;20086;-55
2023/07/27 00:03:14;;;;;;;1.10;1.00;;;16.30;99.90;;;;;;4243824;28;20076;-54
2023/07/27 00:05:34;;;;;;;1.75;1.65;;;16.20;99.90;;;;;;4235579;28;20047;-54
2023/07/27 00:07:55;;;;;;;1.13;1.10;;;16.20;99.90;;;;;;4242573;28;20080;-54
2023/07/27 00:10:15;;;;;;;1.42;1.33;;;16.20;99.90;;;;;;4238431;28;20086;-55
2023/07/27 00:12:37;;;;;;;1.10;1.00;;;16.20;99.90;;;;;;4231689;28;20101;-54
2023/07/27 00:14:57;;;;;;;1.45;1.10;;;16.10;99.90;;;;;;4234131;28;20046;-54
2023/07/27 00:17:18;;;;;;;4.13;1.10;;;16.20;99.90;;;;;;4235875;28;20050;-55
2023/07/27 00:19:38;;;;;;;2.15;1.00;;;16.00;99.90;;;;;;4238137;28;20261;-55
2023/07/27 00:21:58;;;;;;;0.98;0.98;;;16.10;99.90;;;;;;4235056;28;20051;-55
2023/07/27 00:24:19;;;;;;;0.90;0.90;;;16.00;99.90;;;;;;4237905;28;20103;-54
2023/07/27 00:26:41;;;;;;;1.60;1.10;;;15.80;99.90;;;;;;4245688;28;20050;-54
2023/07/27 00:29:01;;;;;;;1.20;1.10;;;15.70;99.90;;;;;;4231519;28;20054;-54
2023/07/27 00:31:21;;;;;;;1.00;1.00;;;15.60;99.90;;;;;;4242803;28;20261;-54
2023/07/27 00:33:41;;;;;;;2.38;1.20;;;15.50;99.90;;;;;;4235007;28;20042;-54
2023/07/27 00:36:01;;;;;;;2.25;1.02;;;15.40;99.90;;;;;;4235642;28;20074;-55
2023/07/27 00:38:22;;;;;;;3.13;1.48;;;15.40;99.90;;;;;;4245122;28;20045;-54
2023/07/27 00:40:46;;;;;;;1.10;1.10;;;15.40;99.90;;;;;;4228316;28;20102;-54
2023/07/27 00:43:06;;;;;;;3.40;1.55;;;15.30;99.90;;;;;;4248412;28;20070;-54
2023/07/27 00:45:28;;;;;;;3.17;1.38;;;15.30;99.90;;;;;;4241988;28;20043;-54
2023/07/27 00:47:48;;;;;;;3.38;1.00;;;15.30;99.90;;;;;;4235129;28;20105;-55
2023/07/27 00:50:09;;;;;;;2.58;1.50;;;15.30;99.90;;;;;;4245689;28;20107;-54
2023/07/27 00:52:29;;;;;;;1.33;1.23;;;15.30;99.90;;;;;;4230685;28;20078;-54
2023/07/27 00:54:55;;;;;;;1.65;1.13;;;15.30;99.90;;;;;;4237359;28;20043;-54
2023/07/27 00:57:17;;;;;;;2.05;1.52;;;15.30;99.90;;;;;;4241748;28;20061;-54
2023/07/27 00:59:39;;;;;;;1.20;1.20;;;15.30;99.90;;;;;;4247438;28;20084;-54
2023/07/27 01:01:59;;;;;;;1.45;1.00;;;15.30;99.90;;;;;;4228661;28;20046;-54
2023/07/27 01:04:20;;;;;;;3.08;1.98;;;15.20;99.90;;;;;;4211093;22;20044;-59
2023/07/27 01:06:41;;;;;;;1.85;1.30;;;15.20;99.90;;;;;;4189486;28;20091;-59
2023/07/27 01:09:02;;;;;;;1.30;1.30;;;15.20;99.90;;;;;;4199230;28;20044;-59
2023/07/27 01:11:34;;;;;;;3.13;1.30;;;15.30;99.90;;;;;;4187169;28;20267;-59
2023/07/27 01:14:13;;;;;;;1.35;1.25;;;15.30;99.90;;;;;;4191129;28;20052;-59
2023/07/27 01:16:58;;;;;;;3.38;1.45;;;15.30;99.90;;;;;;4188572;28;20043;-59
2023/07/27 01:19:45;;;;;;;2.17;1.20;;;15.30;99.90;;;;;;4188071;28;20052;-59
2023/07/27 01:22:25;;;;;;;1.40;1.30;;;15.30;99.90;;;;;;4185306;28;20068;-59
2023/07/27 01:25:33;;;;;;;1.75;1.45;;;15.30;99.90;;;;;;4195145;28;20047;-58
2023/07/27 01:28:26;;;;;;;1.75;1.65;;;15.30;99.90;;;;;;4181007;28;20044;-59
2023/07/27 01:30:57;;;;;;;1.90;1.15;;;15.30;99.90;;;;;;4189900;28;20055;-59
2023/07/27 01:33:24;;;;;;;1.60;1.20;;;15.40;99.90;;;;;;4193290;28;20056;-59
2023/07/27 01:35:59;;;;;;;3.40;1.13;;;15.40;99.90;;;;;;4181571;28;20090;-59
2023/07/27 01:38:20;;;;;;;1.00;1.00;;;15.40;99.90;;;;;;4193440;28;20044;-59
2023/07/27 01:40:42;;;;;;;3.13;1.10;;;15.50;99.90;;;;;;4186101;28;20383;-59
2023/07/27 01:43:03;;;;;;;2.37;2.03;;;15.50;99.90;;;;;;4175322;28;20044;-59
2023/07/27 01:45:24;;;;;;;1.50;1.40;;;15.40;99.90;;;;;;4179222;28;20279;-59
2023/07/27 01:47:45;;;;;;;1.30;1.30;;;15.40;99.90;;;;;;4178165;28;20087;-59
2023/07/27 01:50:07;;;;;;;1.55;1.17;;;15.30;99.90;;;;;;4174428;28;20048;-59
2023/07/27 01:52:27;;;;;;;2.35;1.50;;;15.20;99.90;;;;;;4174984;28;20052;-59
2023/07/27 01:54:48;;;;;;;1.63;1.52;;;15.00;99.90;;;;;;4177652;28;20109;-59
2023/07/27 01:57:09;;;;;;;1.20;1.20;;;15.00;99.90;;;;;;4173221;28;20075;-59
2023/07/27 01:59:30;;;;;;;1.10;1.10;;;14.90;99.90;;;;;;4176924;28;20067;-59
2023/07/27 02:01:52;;;;;;;1.30;1.13;;;14.90;99.90;;;;;;4181999;28;20052;-59
2023/07/27 02:04:12;;;;;;;1.20;1.10;;;15.10;99.90;;;;;;4180405;28;20052;-59
2023/07/27 02:06:32;;;;;;;1.10;1.10;;;15.10;99.90;;;;;;4176619;28;20056;-59
2023/07/27 02:08:53;;;;;;;4.80;1.27;;;14.90;99.90;;;;;;4181781;28;20571;-59
2023/07/27 02:11:16;;;;;;;1.83;1.13;;;15.00;99.90;;;;;;4173814;28;20096;-59
2023/07/27 02:13:46;;;;;;;1.20;1.20;;;15.00;99.90;;;;;;4178406;28;20048;-59
2023/07/27 02:16:34;;;;;;;2.35;1.20;;;15.10;99.90;;;;;;4177848;28;20103;-59
2023/07/27 02:18:56;;;;;;;1.70;1.60;;;15.20;99.90;;;;;;4180693;28;20102;-59
2023/07/27 02:21:17;;;;;;;1.00;1.00;;;15.10;99.90;;;;;;4177482;28;20052;-59
2023/07/27 02:23:38;;;;;;;1.48;1.38;;;15.10;99.90;;;;;;4180945;28;20091;-59
2023/07/27 02:25:58;;;;;;;2.00;1.50;;;15.10;99.90;;;;;;4183171;28;20048;-59
2023/07/27 02:28:18;;;;;;;2.80;1.00;;;14.90;99.90;;;;;;4178521;28;20244;-59
2023/07/27 02:30:38;;;;;;;1.20;1.10;;;14.90;99.90;;;;;;4177699;28;20247;-59
2023/07/27 02:32:58;;;;;;;2.55;1.15;;;14.80;99.90;;;;;;4182800;28;20052;-58
2023/07/27 02:35:19;;;;;;;1.40;1.10;;;14.80;99.90;;;;;;4174479;28;20129;-59
2023/07/27 02:37:39;;;;;;;2.15;1.20;;;14.60;99.90;;;;;;4177504;28;20091;-58
2023/07/27 02:39:59;;;;;;;1.48;1.40;;;14.30;99.90;;;;;;4178401;28;20076;-58
2023/07/27 02:42:19;;;;;;;1.10;1.10;;;14.50;99.90;;;;;;4173705;28;20072;-58
2023/07/27 02:44:39;;;;;;;3.10;1.40;;;14.60;99.90;;;;;;4178501;28;20414;-58
2023/07/27 02:46:58;;;;;;;2.28;2.05;;;14.70;99.90;;;;;;4174052;28;20080;-59
2023/07/27 02:49:18;;;;;;;1.70;1.70;;;14.70;99.90;;;;;;4175244;28;20401;-59
2023/07/27 02:51:41;;;;;;;1.15;1.10;;;14.70;99.90;;;;;;4177514;28;20048;-59
2023/07/27 02:54:01;;;;;;;1.25;1.10;;;14.70;99.90;;;;;;4176429;28;20055;-59
2023/07/27 02:56:21;;;;;;;1.63;1.48;;;14.50;99.90;;;;;;4183237;28;20052;-59
2023/07/27 02:58:40;;;;;;;1.20;1.10;;;14.40;99.90;;;;;;4183649;28;20366;-59
2023/07/27 03:01:02;;;;;;;1.95;1.20;;;14.30;99.90;;;;;;4177631;28;20114;-59
2023/07/27 03:03:22;;;;;;;1.45;1.35;;;14.40;99.90;;;;;;4182207;28;20053;-59
2023/07/27 03:05:43;;;;;;;1.33;1.23;;;14.50;99.90;;;;;;4173123;28;20088;-59
2023/07/27 03:08:03;;;;;;;1.45;1.45;;;14.50;99.90;;;;;;4178537;28;20052;-59
2023/07/27 03:10:23;;;;;;;2.03;1.20;;;14.50;99.90;;;;;;4176530;28;20371;-59
2023/07/27 03:12:43;;;;;;;1.42;1.20;;;14.40;99.90;;;;;;4174317;28;20113;-58
2023/07/27 03:15:03;;;;;;;2.28;1.15;;;14.50;99.90;;;;;;4174215;28;20067;-59
2023/07/27 03:17:24;;;;;;;1.40;1.30;;;14.50;99.90;;;;;;4179699;28;20051;-59
2023/07/27 03:19:44;;;;;;;3.15;1.23;;;14.50;99.90;;;;;;4180985;28;20398;-58
2023/07/27 03:22:04;;;;;;;1.95;1.25;;;14.30;99.90;;;;;;4179118;28;20049;-58
2023/07/27 03:24:24;;;;;;;1.00;1.00;;;14.40;99.90;;;;;;4184472;28;20112;-58
2023/07/27 03:26:45;;;;;;;2.25;1.55;;;14.40;99.90;;;;;;4185375;28;20091;-59
2023/07/27 03:29:05;;;;;;;1.30;1.30;;;14.40;99.90;;;;;;4180461;28;20044;-59
2023/07/27 03:31:27;;;;;;;1.33;1.20;;;14.20;99.90;;;;;;4179082;28;20071;-59
2023/07/27 03:33:48;;;;;;;1.15;1.15;;;14.20;99.90;;;;;;4184008;28;20044;-59
2023/07/27 03:36:08;;;;;;;1.55;1.10;;;14.20;99.90;;;;;;4177937;28;20048;-59
2023/07/27 03:38:28;;;;;;;1.25;1.25;;;14.30;99.90;;;;;;4178447;28;20279;-58
2023/07/27 03:40:48;;;;;;;1.27;1.27;;;14.30;99.90;;;;;;4178981;28;20109;-59
2023/07/27 03:43:08;;;;;;;1.10;1.10;;;14.20;99.90;;;;;;4176918;28;20079;-58
2023/07/27 03:45:28;;;;;;;1.90;1.38;;;14.30;99.90;;;;;;4180224;28;20083;-58
2023/07/27 03:47:48;;;;;;;3.22;1.10;;;14.20;99.90;;;;;;4177164;28;20378;-58
2023/07/27 03:50:09;;;;;;;1.25;1.25;;;14.20;99.90;;;;;;4178593;28;20103;-59
2023/07/27 03:52:29;;;;;;;1.20;1.20;;;14.20;99.90;;;;;;4178570;28;20087;-59
2023/07/27 03:54:49;;;;;;;1.60;1.25;;;14.00;99.90;;;;;;4179403;28;20147;-59
2023/07/27 03:57:09;;;;;;;1.58;1.45;;;13.80;99.90;;;;;;4185083;28;20055;-59
2023/07/27 03:59:29;;;;;;;2.65;1.20;;;13.70;99.90;;;;;;4175218;28;20060;-59
2023/07/27 04:01:49;;;;;;;1.65;1.55;;;13.70;99.90;;;;;;4179359;28;20049;-59
2023/07/27 04:04:10;;;;;;;1.40;1.38;;;13.70;99.90;;;;;;4180920;28;20096;-59
2023/07/27 04:06:30;;;;;;;1.27;1.27;;;13.60;99.90;;;;;;4175909;28;20284;-59
2023/07/27 04:08:51;;;;;;;1.20;1.20;;;13.50;99.90;;;;;;4180269;28;20052;-59
2023/07/27 04:11:10;;;;;;;1.30;1.20;;;13.40;99.90;;;;;;4179188;28;20071;-58
2023/07/27 04:13:30;;;;;;;3.95;1.50;;;13.40;99.90;;;;;;4177608;28;20052;-59
2023/07/27 04:15:50;;;;;;;1.33;1.23;;;13.50;99.90;;;;;;4175334;28;20052;-58
2023/07/27 04:18:10;;;;;;;1.20;1.20;;;13.60;99.90;;;;;;4177084;28;20045;-58
2023/07/27 04:20:30;;;;;;;3.85;1.38;;;13.70;99.90;;;;;;4183558;28;20091;-58
2023/07/27 04:22:50;;;;;;;1.40;1.40;;;13.60;99.90;;;;;;4181109;28;20040;-58
2023/07/27 04:25:10;;;;;;;1.67;1.58;;;13.70;99.90;;;;;;4179073;28;20256;-59
2023/07/27 04:27:29;;;;;;;1.95;1.85;;;13.70;99.90;;;;;;4182927;28;20052;-59
2023/07/27 04:29:49;;;;;;;1.20;1.20;;;13.70;99.90;;;;;;4162800;28;20048;-59
2023/07/27 04:32:09;;;;;;;1.90;1.70;;;13.70;99.90;;;;;;4177417;28;20090;-59
2023/07/27 04:34:29;;;;;;;1.85;1.75;;;13.70;99.90;;;;;;4181789;28;20095;-58
2023/07/27 04:36:49;;;;;;;1.58;1.55;;;13.80;99.90;;;;;;4176584;28;20047;-58
2023/07/27 04:39:09;;;;;;;1.77;1.67;;;13.90;99.90;;;;;;4175693;28;20048;-59
2023/07/27 04:41:29;;;;;;;2.45;1.70;;;14.00;99.90;;;;;;4179234;28;20095;-59
2023/07/27 04:43:50;;;;;;;1.30;1.20;;;14.00;99.90;;;;;;4181137;28;20076;-58
2023/07/27 04:46:10;;;;;;;2.80;1.20;;;14.00;99.90;;;;;;4180566;28;20105;-59
2023/07/27 04:48:31;;;;;;;1.52;1.42;;;14.00;99.90;;;;;;4183534;28;20048;-59
2023/07/27 04:50:51;;;;;;;2.03;1.92;;;13.90;99.90;;;;;;4183315;28;20113;-61
2023/07/27 04:53:14;;;;;;;2.00;1.90;;;13.90;99.90;;;;;;4184868;28;20121;-61
2023/07/27 04:55:33;;;;;;;1.63;1.45;;;13.90;99.90;;;;;;4177755;28;20090;-61
2023/07/27 04:57:54;;;;;;;1.90;1.63;;;13.90;99.90;;;;;;4182837;28;20218;-61
2023/07/27 05:00:13;;;;;;;1.95;1.38;;;13.90;99.90;;;;;;4178321;28;20084;-61
2023/07/27 05:02:34;;;;;;;1.80;1.60;;;13.80;99.90;;;;;;4177013;28;20064;-61
2023/07/27 05:04:54;;;;;;;1.40;1.40;;;13.80;99.90;;;;;;4180969;28;20048;-61
2023/07/27 05:07:14;;;;;;;1.98;1.27;;;13.80;99.90;;;;;;4175990;28;20052;-61
2023/07/27 05:09:34;;;;;;;1.67;1.50;;;13.70;99.90;;;;;;4178926;28;20047;-61
2023/07/27 05:11:54;;;;;;;2.35;1.67;;;13.90;99.90;;;;;;4181085;28;20039;-61
2023/07/27 05:14:14;;;;;;;3.33;1.67;;;13.90;99.90;;;;;;4177683;28;20119;-61
2023/07/27 05:16:34;;;;;;;1.83;1.70;;;13.90;99.90;;;;;;4180819;28;20294;-61
2023/07/27 05:18:54;;;;;;;2.58;1.45;;;13.90;99.90;;;;;;4176600;28;20048;-58
2023/07/27 05:21:13;;;;;;;1.95;1.85;;;14.00;99.90;;;;;;4182961;28;20106;-59
2023/07/27 05:23:34;;;;;;;2.83;2.03;;;14.00;99.90;;;;;;4180094;28;20375;-58
2023/07/27 05:25:54;;;;;;;1.20;1.20;;;14.10;99.90;;;;;;4177461;28;20087;-58
2023/07/27 05:28:16;;;;;;;4.00;1.50;;;14.10;99.90;;;;;;4182546;28;20064;-58
2023/07/27 05:30:35;;;;;;;1.65;1.55;;;14.30;99.90;;;;;;4177872;28;20061;-58
2023/07/27 05:32:55;;;;;;;2.63;1.67;;;14.30;99.90;;;;;;4175531;28;20094;-60
2023/07/27 05:35:15;;;;;;;1.40;1.40;;;14.40;99.90;;;;;;4179409;28;20064;-60
2023/07/27 05:37:35;;;;;;;2.47;1.33;;;14.50;99.90;;;;;;4180272;28;20047;-61
2023/07/27 05:39:55;;;;;;;1.70;1.30;;;14.60;99.90;;;;;;4179146;28;20289;-61
2023/07/27 05:42:15;;;;;;;1.10;1.10;;;14.80;99.90;;;;;;4177155;28;20087;-60
2023/07/27 05:44:35;;;;;;;1.83;1.80;;;14.80;99.90;;;;;;4181404;28;20044;-61
2023/07/27 05:46:56;;;;;;;2.75;1.75;;;14.80;99.90;;;;;;4182999;28;20358;-61
2023/07/27 05:49:16;;;;;;;1.50;1.40;;;14.90;99.90;;;;;;4182105;28;20112;-60
2023/07/27 05:51:35;;;;;;;5.68;1.75;;;14.90;99.90;;;;;;4180223;28;20091;-60
2023/07/27 05:53:56;;;;;;;1.30;1.20;;;15.00;99.90;;;;;;4180555;28;20458;-61
2023/07/27 05:56:16;;;;;;;2.22;1.40;;;15.00;99.90;;;;;;4180297;28;20059;-60
2023/07/27 05:58:36;;;;;;;3.67;1.42;;;15.20;99.90;;;;;;4179769;28;20059;-61
2023/07/27 06:01:01;;;;;;;1.38;1.38;;;15.30;99.90;;;;;;4180725;28;20239;-60
2023/07/27 06:03:21;;;;;;;1.90;1.23;;;15.20;99.90;;;;;;4178199;28;20072;-59
2023/07/27 06:05:44;;;;;;;2.47;1.60;;;15.30;99.90;;;;;;4176945;28;20238;-61
2023/07/27 06:08:04;;;;;;;2.65;1.55;;;15.60;99.90;;;;;;4180335;28;20049;-61
2023/07/27 06:10:24;;;;;;;1.50;1.40;;;15.60;99.90;;;;;;4180974;28;20084;-61
2023/07/27 06:12:44;;;;;;;2.60;1.10;;;15.60;99.90;;;;;;4179798;28;20052;-61
2023/07/27 06:15:04;;;;;;;1.17;1.17;;;15.70;99.90;;;;;;4179624;28;20048;-59
2023/07/27 06:17:27;;;;;;;1.10;1.10;;;15.70;99.90;;;;;;4180186;28;20095;-58
2023/07/27 06:19:47;;;;;;;1.10;1.10;;;15.70;99.90;;;;;;4180609;28;20082;-58
2023/07/27 06:22:07;;;;;;;1.40;1.30;;;16.00;99.90;;;;;;4180833;28;20286;-59
2023/07/27 06:24:27;;;;;;;1.25;1.25;;;16.30;99.90;;;;;;4178639;28;20067;-59
2023/07/27 06:26:47;;;;;;;1.20;1.20;;;16.60;99.90;;;;;;4179588;28;20044;-59
2023/07/27 06:29:07;;;;;;;1.23;1.20;;;16.40;99.90;;;;;;4184606;28;20048;-58
2023/07/27 06:31:26;;;;;;;3.22;1.25;;;16.40;99.90;;;;;;4175706;28;20044;-58
2023/07/27 06:33:46;;;;;;;1.70;1.10;;;16.40;99.90;;;;;;4180255;28;20091;-58
2023/07/27 06:36:08;;;;;;;1.02;1.00;;;16.90;99.90;;;;;;4180062;28;20075;-59
2023/07/27 06:38:28;;;;;;;1.00;1.00;;;17.20;99.90;;;;;;4172560;28;20087;-58
2023/07/27 06:40:48;;;;;;;0.90;0.90;;;17.70;99.90;;;;;;4178012;28;20148;-58
2023/07/27 06:43:08;;;;;;;1.00;1.00;;;17.70;99.90;;;;;;4179269;28;20088;-58
2023/07/27 06:45:28;;;;;;;1.95;1.02;;;17.70;99.90;;;;;;4179364;28;20057;-59
2023/07/27 06:47:48;;;;;;;1.88;1.05;;;17.70;99.90;;;;;;4180394;28;20091;-58
2023/07/27 06:50:09;;;;;;;1.15;1.00;;;17.90;99.90;;;;;;4179159;28;20079;-59
2023/07/27 06:52:29;;;;;;;1.35;0.90;;;18.40;99.90;;;;;;4182188;28;20087;-58
2023/07/27 06:54:50;;;;;;;9.48;1.52;;;18.40;99.90;;;;;;4177309;28;20052;-58
2023/07/27 06:57:12;;;;;;;1.33;0.95;;;18.20;99.90;;;;;;4175059;28;20129;-58
2023/07/27 06:59:32;;;;;;;2.00;1.00;;;18.10;99.90;;;;;;4176832;28;20067;-58
2023/07/27 07:01:54;;;;;;;1.00;1.00;;;18.20;99.90;;;;;;4183993;28;20075;-59
2023/07/27 07:04:14;;;;;;;1.17;0.90;;;18.60;99.90;;;;;;4178364;28;20077;-58
2023/07/27 07:06:34;;;;;;;1.45;0.93;;;18.80;99.90;;;;;;4178589;28;20059;-58
2023/07/27 07:08:54;;;;;;;0.90;0.90;;;18.70;99.90;;;;;;4181753;28;20080;-58
2023/07/27 07:11:14;;;;;;;1.55;0.90;;;18.60;99.90;;;;;;4177079;28;20387;-58
2023/07/27 07:13:35;;;;;;;2.78;1.00;;;18.80;99.90;;;;;;4179481;28;20053;-58
2023/07/27 07:15:54;;;;;;;0.82;0.82;;;19.40;99.90;;;;;;4180610;28;20405;-58
2023/07/27 07:18:15;;;;;;;0.90;0.90;;;19.70;99.90;;;;;;4179371;28;20101;-58
2023/07/27 07:20:35;;;;;;;1.10;0.80;;;20.20;99.90;;;;;;4179324;28;20091;-58
2023/07/27 07:22:54;;;;;;;1.85;0.80;;;20.60;99.90;;;;;;4179161;28;20048;-58
2023/07/27 07:25:15;;;;;;;0.80;0.80;;;20.70;99.90;;;;;;4180270;28;20071;-58
2023/07/27 07:27:36;;;;;;;1.75;0.82;;;20.60;99.90;;;;;;4169352;28;20401;-58
2023/07/27 07:29:55;;;;;;;0.75;0.75;;;20.10;98.80;;;;;;4178551;28;20049;-58
2023/07/27 07:32:15;;;;;;;2.15;1.23;;;20.10;99.90;;;;;;4177815;28;20048;-58
2023/07/27 07:34:35;;;;;;;1.35;0.70;;;20.80;99.90;;;;;;4181574;28;20074;-59
2023/07/27 07:36:55;;;;;;;0.80;0.80;;;20.80;99.10;;;;;;4182337;28;20044;-58
2023/07/27 07:39:15;;;;;;;0.70;0.70;;;21.00;99.50;;;;;;4178902;28;20083;-58
2023/07/27 07:41:35;;;;;;;0.90;0.70;;;21.30;98.70;;;;;;4179995;28;20056;-58
2023/07/27 07:43:54;;;;;;;0.80;0.80;;;21.50;99.20;;;;;;4179619;28;20049;-59
2023/07/27 07:46:14;;;;;;;0.88;0.80;;;21.80;97.50;;;;;;4179097;28;20044;-58
2023/07/27 07:48:34;;;;;;;0.85;0.85;;;21.60;99.30;;;;;;4179107;28;20144;-59
2023/07/27 07:50:55;;;;;;;0.70;0.70;;;21.90;98.50;;;;;;4178705;28;20064;-59
2023/07/27 07:53:15;;;;;;;0.80;0.80;;;21.80;98.20;;;;;;4177882;28;20055;-59
2023/07/27 07:55:49;;;;;;;1.48;0.70;;;22.10;99.60;;;;;;4174048;28;20232;-59
2023/07/27 07:58:09;;;;;;;1.60;0.70;;;22.40;97.80;;;;;;4179353;28;20366;-58
2023/07/27 08:00:29;;;;;;;0.88;0.88;;;22.40;98.00;;;;;;4180840;28;20083;-59
2023/07/27 08:02:49;;;;;;;1.00;0.70;;;22.60;97.70;;;;;;4178198;28;20559;-58
2023/07/27 08:05:09;;;;;;;0.70;0.70;;;22.50;96.40;;;;;;4177405;28;20053;-59
2023/07/27 08:07:30;;;;;;;0.73;0.70;;;22.60;96.90;;;;;;4178119;28;20278;-59
2023/07/27 08:09:50;;;;;;;1.05;0.70;;;23.00;96.80;;;;;;4180399;28;20068;-59
2023/07/27 08:12:09;;;;;;;0.70;0.70;;;23.50;96.50;;;;;;4181565;28;20367;-58
2023/07/27 08:14:29;;;;;;;0.60;0.60;;;23.50;96.00;;;;;;4182121;28;20076;-58
2023/07/27 08:16:49;;;;;;;0.65;0.65;;;23.60;97.00;;;;;;4181542;28;20052;-58
2023/07/27 08:19:09;;;;;;;0.60;0.60;;;23.70;95.80;;;;;;4182126;28;20052;-58
2023/07/27 08:21:29;;;;;;;1.30;0.63;;;23.50;96.00;;;;;;4178606;28;20049;-58
2023/07/27 08:23:52;;;;;;;1.15;0.70;;;23.90;97.00;;;;;;4183261;28;20422;-58
2023/07/27 08:26:12;;;;;;;0.70;0.70;;;23.70;95.50;;;;;;4178491;28;20044;-58
2023/07/27 08:28:32;;;;;;;1.25;0.70;;;23.60;96.40;;;;;;4182073;28;20080;-58
2023/07/27 08:30:52;;;;;;;0.60;0.60;;;23.40;95.60;;;;;;4179309;28;20052;-58
2023/07/27 08:33:12;;;;;;;0.60;0.60;;;23.30;95.00;;;;;;4182643;28;20048;-59
2023/07/27 08:35:32;;;;;;;0.60;0.60;;;23.60;95.70;;;;;;4179502;28;20240;-59
2023/07/27 08:37:53;;;;;;;0.60;0.60;;;24.20;94.00;;;;;;4177659;28;20048;-59
2023/07/27 08:40:12;;;;;;;0.63;0.60;;;24.20;93.40;;;;;;4181875;28;20064;-59
2023/07/27 08:42:32;;;;;;;0.98;0.60;;;24.40;93.80;;;;;;4182040;28;20067;-59
2023/07/27 08:44:52;;;;;;;0.60;0.60;;;24.10;93.40;;;;;;4181454;28;20363;-59
2023/07/27 08:47:12;;;;;;;0.50;0.50;;;24.30;94.80;;;;;;4182119;28;20106;-59
2023/07/27 08:49:33;;;;;;;0.60;0.60;;;25.00;93.50;;;;;;4181550;28;20067;-59
2023/07/27 08:51:53;;;;;;;0.50;0.50;;;25.60;93.10;;;;;;4180478;28;20152;-59
2023/07/27 08:54:13;;;;;;;0.80;0.50;;;25.30;93.30;;;;;;4179693;28;20416;-59
2023/07/27 08:56:33;;;;;;;1.00;0.50;;;25.70;92.30;;;;;;4180269;28;20159;-58
2023/07/27 08:58:53;;;;;;;0.57;0.57;;;25.70;91.70;;;;;;4181299;28;20045;-59
2023/07/27 09:01:13;;;;;;;0.50;0.50;;;25.80;93.00;;;;;;4178693;28;20052;-59
2023/07/27 09:03:33;;;;;;;1.08;0.50;;;26.00;89.20;;;;;;4180075;28;20048;-59
2023/07/27 09:05:58;;;;;;;1.25;0.50;;;26.20;89.00;;;;;;4180632;28;20055;-59
2023/07/27 09:08:18;;;;;;;0.50;0.50;;;26.00;90.70;;;;;;4181466;28;20056;-59
2023/07/27 09:10:40;;;;;;;0.40;0.40;;;25.80;91.70;;;;;;4181760;28;20043;-59
2023/07/27 09:13:00;;;;;;;0.50;0.50;;;26.00;90.80;;;;;;4181363;28;20101;-59
2023/07/27 09:15:20;;;;;;;0.50;0.50;;;26.40;90.30;;;;;;4181276;28;20063;-59
2023/07/27 09:17:40;;;;;;;0.57;0.40;;;26.50;89.20;;;;;;4180334;28;20048;-59
2023/07/27 09:20:00;;;;;;;0.55;0.43;;;26.80;88.00;;;;;;4178396;28;20043;-59
2023/07/27 09:22:21;;;;;;;1.40;0.43;;;26.70;87.30;;;;;;4180082;28;20059;-59
2023/07/27 09:24:41;;;;;;;0.40;0.40;;;27.00;90.60;;;;;;4186685;28;20097;-59
2023/07/27 09:27:08;;;;;;;1.25;0.50;;;26.70;83.50;;;;;;4176890;28;20047;-59
2023/07/27 09:29:28;;;;;;;2.38;0.50;;;26.20;87.60;;;;;;4179170;28;20075;-58
2023/07/27 09:31:57;;;;;;;0.50;0.50;;;26.00;85.40;;;;;;4180597;28;20088;-59
2023/07/27 09:34:18;;;;;;;0.82;0.50;;;26.30;91.00;;;;;;4179816;28;20080;-59
2023/07/27 09:36:39;;;;;;;0.45;0.45;;;27.10;89.50;;;;;;4178391;28;20045;-58
2023/07/27 09:39:00;;;;;;;1.50;0.50;;;26.70;88.60;;;;;;4180872;28;20049;-58
2023/07/27 09:41:22;;;;;;;1.95;0.40;;;26.90;85.50;;;;;;4180567;28;20056;-59
2023/07/27 09:43:43;;;;;;;0.40;0.40;;;27.30;85.30;;;;;;4177892;28;20105;-58
2023/07/27 09:46:03;;;;;;;1.27;0.50;;;26.70;80.20;;;;;;4178630;28;20084;-59
2023/07/27 09:48:24;;;;;;;0.40;0.40;;;26.90;84.00;;;;;;4183941;28;20094;-59
2023/07/27 09:50:43;;;;;;;0.43;0.43;;;26.90;84.60;;;;;;4177768;28;20053;-58
2023/07/27 09:53:05;;;;;;;0.55;0.40;;;27.20;84.20;;;;;;4176002;28;20105;-58
2023/07/27 09:55:25;;;;;;;0.50;0.50;;;27.50;85.80;;;;;;4179123;28;20113;-59
2023/07/27 09:57:47;;;;;;;0.40;0.40;;;27.60;83.80;;;;;;4183502;28;20087;-59
2023/07/27 10:00:09;;;;;;;0.50;0.50;;;28.00;78.40;;;;;;4179095;28;20167;-59
2023/07/27 10:02:29;;;;;;;1.85;0.50;;;28.40;81.60;;;;;;4172931;28;20048;-59
2023/07/27 10:04:52;;;;;;;1.30;0.40;;;28.80;81.00;;;;;;4179181;28;20128;-59
2023/07/27 10:07:13;;;;;;;0.50;0.50;;;28.00;79.00;;;;;;4183898;28;20228;-59
2023/07/27 10:09:33;;;;;;;1.15;0.40;;;27.70;70.70;;;;;;4181626;28;20052;-59
2023/07/27 10:11:59;;;;;;;0.50;0.50;;;28.20;76.80;;;;;;4181683;28;20083;-58
2023/07/27 10:14:20;;;;;;;0.40;0.40;;;28.60;76.50;;;;;;4182261;28;20362;-59
2023/07/27 10:16:40;;;;;;;0.40;0.40;;;28.40;72.10;;;;;;4179514;28;20059;-59
2023/07/27 10:19:03;;;;;;;0.40;0.40;;;28.30;76.90;;;;;;4179048;28;20088;-59
2023/07/27 10:21:29;;;;;;;0.40;0.40;;;28.50;81.50;;;;;;4182045;28;20098;-58
2023/07/27 10:23:58;;;;;;;0.40;0.40;;;28.10;76.10;;;;;;4177464;28;20052;-59
2023/07/27 10:26:17;;;;;;;0.50;0.50;;;28.00;74.00;;;;;;4176154;28;20076;-59
2023/07/27 10:28:48;;;;;;;0.45;0.45;;;28.40;76.50;;;;;;4179582;28;20064;-59
2023/07/27 10:31:14;;;;;;;0.60;0.50;;;27.90;73.40;;;;;;4182636;28;20274;-59
2023/07/27 10:33:34;;;;;;;1.75;0.50;;;27.80;73.50;;;;;;4178599;28;20436;-59
2023/07/27 10:36:03;;;;;;;0.40;0.40;;;28.40;74.40;;;;;;4179738;28;20080;-59
2023/07/27 10:38:24;;;;;;;0.40;0.40;;;28.90;76.40;;;;;;4170224;28;20061;-59
2023/07/27 10:40:44;;;;;;;1.00;0.40;;;29.50;75.40;;;;;;4180691;28;20136;-59
2023/07/27 10:43:04;;;;;;;1.30;0.40;;;29.70;71.40;;;;;;4178724;28;20084;-59
2023/07/27 10:45:25;;;;;;;0.40;0.40;;;29.80;71.40;;;;;;4179864;28;20048;-58
2023/07/27 10:47:49;;;;;;;0.50;0.30;;;29.70;71.40;;;;;;4178655;28;20367;-59
2023/07/27 10:50:09;;;;;;;0.32;0.32;;;29.30;75.80;;;;;;4176168;28;20401;-59
2023/07/27 10:52:33;;;;;;;0.30;0.30;;;29.10;73.20;;;;;;4176352;28;20401;-59
2023/07/27 10:54:56;;;;;;;0.30;0.30;;;29.10;74.30;;;;;;4181298;28;20040;-59
2023/07/27 10:57:18;;;;;;;2.30;0.32;;;29.40;75.20;;;;;;4172421;28;20056;-59
2023/07/27 10:59:40;;;;;;;0.30;0.30;;;29.60;74.20;;;;;;4178473;28;20104;-59
2023/07/27 11:02:00;;;;;;;0.30;0.30;;;30.00;76.50;;;;;;4179266;28;20395;-58
2023/07/27 11:04:21;;;;;;;0.30;0.30;;;29.80;72.50;;;;;;4179370;28;20083;-59
2023/07/27 11:06:44;;;;;;;0.75;0.40;;;29.40;75.70;;;;;;4179477;28;20040;-59
2023/07/27 11:09:13;;;;;;;0.30;0.30;;;29.50;77.80;;;;;;4170525;28;20044;-59
2023/07/27 11:11:33;;;;;;;0.30;0.30;;;29.80;79.40;;;;;;4179672;28;20098;-59
2023/07/27 11:13:53;;;;;;;0.30;0.30;;;29.90;75.90;;;;;;4184752;28;20047;-59
2023/07/27 11:16:13;;;;;;;4.18;0.50;;;30.30;74.10;;;;;;4174752;28;20040;-58
2023/07/27 11:18:37;;;;;;;0.30;0.30;;;29.50;74.30;;;;;;4178372;28;20378;-59
2023/07/27 11:20:57;;;;;;;1.17;0.30;;;29.00;74.90;;;;;;4177520;28;20072;-58
2023/07/27 11:23:17;;;;;;;1.00;0.30;;;28.90;76.40;;;;;;4177129;28;20068;-59
2023/07/27 11:25:38;;;;;;;0.30;0.30;;;29.20;75.70;;;;;;4160679;28;20045;-59
2023/07/27 11:27:58;;;;;;;0.30;0.30;;;29.00;76.10;;;;;;4180877;28;20048;-59
2023/07/27 11:30:21;;;;;;;0.30;0.30;;;29.20;76.70;;;;;;4185018;28;20308;-59
2023/07/27 11:32:41;;;;;;;0.68;0.30;;;29.50;73.60;;;;;;4176571;28;20057;-59
2023/07/27 11:35:01;;;;;;;0.25;0.25;;;30.00;78.10;;;;;;4179264;28;20044;-58
2023/07/27 11:37:24;;;;;;;0.30;0.30;;;30.50;74.50;;;;;;4179767;28;20052;-59
2023/07/27 11:39:45;;;;;;;0.30;0.30;;;30.00;72.60;;;;;;4181420;28;20048;-59
2023/07/27 11:42:09;;;;;;;0.30;0.30;;;29.50;70.90;;;;;;4178287;28;20087;-58
2023/07/27 11:44:29;;;;;;;0.40;0.40;;;29.50;74.50;;;;;;4179940;28;20104;-57
2023/07/27 11:46:52;;;;;;;0.30;0.30;;;29.00;72.60;;;;;;4183807;28;20064;-58
2023/07/27 11:49:13;;;;;;;0.30;0.30;;;29.50;75.70;;;;;;4179222;28;20279;-58
2023/07/27 11:51:33;;;;;;;0.40;0.40;;;29.50;76.10;;;;;;4181829;28;20095;-58
2023/07/27 11:53:53;;;;;;;0.35;0.35;;;29.50;72.30;;;;;;4184389;28;20298;-58
2023/07/27 11:56:13;;;;;;;0.40;0.40;;;29.30;71.90;;;;;;4180355;28;20067;-57
2023/07/27 11:58:33;;;;;;;0.40;0.40;;;29.20;71.20;;;;;;4180982;28;20044;-58
2023/07/27 12:00:55;;;;;;;1.33;0.40;;;29.00;73.40;;;;;;4182309;28;20044;-58
2023/07/27 12:03:15;;;;;;;0.40;0.40;;;29.20;72.30;;;;;;4183427;28;20240;-58
2023/07/27 12:05:43;;;;;;;0.40;0.40;;;28.80;71.00;;;;;;4181882;28;20076;-58
2023/07/27 12:08:04;;;;;;;2.47;0.40;;;28.70;73.70;;;;;;4181541;28;20406;-58
2023/07/27 12:10:27;;;;;;;0.30;0.30;;;29.00;72.80;;;;;;4180909;28;20157;-58
2023/07/27 12:13:05;;;;;;;1.05;0.40;;;29.50;72.00;;;;;;4179933;28;20367;-58
2023/07/27 12:15:31;;;;;;;0.73;0.30;;;29.80;68.90;;;;;;4179178;28;20107;-58
2023/07/27 12:17:56;;;;;;;0.35;0.35;;;29.80;72.60;;;;;;4180324;28;20047;-57